Glen Jean, West Virginia
Current Conditions -  °F | °C
As of 6:51 AM on Friday 19 Dec 2014 (Local Time) from KBKW Reporting Station
Overcast Overcast  
Wind Chill: 17°   Ceiling: 1000
Heat Index: 25°   Visibility: 10mi
Dew Point: 20°   Wind: 7mph
Humidity: 81%   Direction: 320°NW
Pressure: 30.13"   Gusts: NA
Location:  37.93°N, 81.15°W
Report Text: KBKW 191151Z AUTO 32006KT 10SM OVC010 M04/M07 A3013 RMK AO2 SLP239 T10391067 11033 21044 53009
Loading
Personal Weather Stations






























Interactive Weather Map New forecast layout! Learn more

10-Day Weather Forecast

Advertisements
Track Severe Weather on mobile